createdAt,value
2022-09-28T00:00:33.154Z,6.12
2022-09-28T00:03:02.578Z,6.11
2022-09-28T00:05:32.888Z,6.10
2022-09-28T00:08:02.284Z,6.10
2022-09-28T00:10:31.429Z,6.09
2022-09-28T00:13:01.672Z,6.09
2022-09-28T00:15:33.463Z,6.09
2022-09-28T00:18:02.488Z,6.10
2022-09-28T00:20:31.594Z,6.12
2022-09-28T00:23:00.745Z,6.10
2022-09-28T00:25:31.159Z,6.09
2022-09-28T00:28:00.198Z,6.12
2022-09-28T00:30:29.314Z,6.10
2022-09-28T00:32:59.746Z,6.10
2022-09-28T00:35:29.756Z,6.10
2022-09-28T00:37:58.972Z,6.10
2022-09-28T00:40:28.068Z,6.07
2022-09-28T00:42:57.186Z,6.06
2022-09-28T00:45:28.055Z,6.05
2022-09-28T00:48:00.991Z,6.07
2022-09-28T00:50:33.917Z,5.99
2022-09-28T00:53:10.421Z,6.05
2022-09-28T00:55:44.214Z,6.05
2022-09-28T00:58:19.566Z,6.00
2022-09-28T01:00:55.637Z,5.99
2022-09-28T01:03:26.899Z,6.01
2022-09-28T01:05:59.855Z,6.01
2022-09-28T01:08:33.047Z,6.02
2022-09-28T01:11:02.737Z,5.96
2022-09-28T01:13:37.873Z,5.99
2022-09-28T01:16:15.370Z,6.00
2022-09-28T01:18:59.910Z,5.98
2022-09-28T01:21:54.523Z,5.96
2022-09-28T01:28:38.251Z,5.93
2022-09-28T01:31:20.375Z,5.88
2022-09-28T01:34:25.437Z,5.93
2022-09-28T01:38:27.094Z,5.94
2022-09-28T01:47:24.953Z,5.91
2022-09-28T01:49:56.784Z,5.94
2022-09-28T01:52:35.815Z,5.88
2022-09-28T02:00:43.154Z,5.89
2022-09-28T02:55:50.501Z,5.80
2022-09-28T02:58:36.008Z,5.78
2022-09-28T03:01:37.464Z,5.80
2022-09-28T03:04:56.476Z,5.78
2022-09-28T03:08:09.535Z,5.79
2022-09-28T03:19:42.512Z,5.85
2022-09-28T03:23:19.826Z,5.81
2022-09-28T03:25:55.770Z,5.82
2022-09-28T03:28:44.335Z,5.81
2022-09-28T03:31:50.254Z,5.82
2022-09-28T03:34:32.419Z,5.82
2022-09-28T03:37:18.630Z,5.84
2022-09-28T03:40:10.251Z,5.85
2022-09-28T03:42:45.294Z,5.86
2022-09-28T03:45:15.587Z,5.87
2022-09-28T03:47:53.215Z,5.83
2022-09-28T03:50:25.718Z,5.86
2022-09-28T03:53:14.452Z,5.91
2022-09-28T03:55:59.020Z,5.92
2022-09-28T03:58:34.322Z,5.95
2022-09-28T04:01:38.894Z,5.95
2022-09-28T04:04:21.384Z,5.97
2022-09-28T04:07:03.976Z,5.97
2022-09-28T04:09:43.107Z,5.98
2022-09-28T04:12:32.980Z,6.02
2022-09-28T04:15:42.159Z,6.06
2022-09-28T04:18:15.071Z,6.09
2022-09-28T04:21:40.414Z,6.12
2022-09-28T04:24:30.905Z,6.10
2022-09-28T04:34:22.278Z,6.23
2022-09-28T04:37:35.802Z,6.24
2022-09-28T04:40:39.334Z,6.25
2022-09-28T04:43:30.148Z,6.25
2022-09-28T04:50:08.350Z,6.30
2022-09-28T04:53:18.691Z,6.34
2022-09-28T05:00:38.020Z,6.37
2022-09-28T05:04:13.652Z,6.40
2022-09-28T05:07:38.443Z,6.34
2022-09-28T05:10:32.566Z,6.37
2022-09-28T05:17:01.011Z,6.37
2022-09-28T05:20:11.151Z,6.44
2022-09-28T05:22:54.194Z,6.47
2022-09-28T05:26:11.005Z,6.55
2022-09-28T05:29:06.671Z,6.62
2022-09-28T05:32:07.211Z,6.71
2022-09-28T05:35:32.310Z,6.77
2022-09-28T05:38:16.662Z,6.75
2022-09-28T05:41:30.108Z,6.81
2022-09-28T05:45:02.826Z,6.94
2022-09-28T05:48:14.929Z,6.96
2022-09-28T05:51:24.125Z,7.00
2022-09-28T05:54:21.610Z,7.09
2022-09-28T05:57:07.734Z,7.07
2022-09-28T05:59:49.343Z,7.13
2022-09-28T06:02:33.359Z,7.15
2022-09-28T06:05:42.261Z,7.15
2022-09-28T06:08:32.450Z,7.18
2022-09-28T06:11:54.106Z,7.15
2022-09-28T06:15:14.781Z,7.13
2022-09-28T06:18:21.003Z,7.13
2022-09-28T06:21:19.111Z,7.06
2022-09-28T06:24:05.494Z,7.12
2022-09-28T06:26:38.630Z,7.26
2022-09-28T06:29:20.537Z,7.25
2022-09-28T06:31:54.636Z,7.15
2022-09-28T06:34:36.567Z,7.18
2022-09-28T06:37:09.078Z,7.14
2022-09-28T06:39:44.452Z,7.18
2022-09-28T06:42:16.189Z,7.21
2022-09-28T06:45:07.604Z,7.28
2022-09-28T06:48:07.893Z,7.27
2022-09-28T06:50:43.588Z,7.31
2022-09-28T06:53:33.042Z,7.34
2022-09-28T06:56:16.483Z,7.36
2022-09-28T06:58:48.632Z,7.48
2022-09-28T07:01:22.837Z,7.70
2022-09-28T07:04:11.727Z,7.75
2022-09-28T07:06:49.540Z,7.76
2022-09-28T07:14:26.821Z,7.93
2022-09-28T07:17:14.062Z,7.91
2022-09-28T07:19:45.835Z,7.86
2022-09-28T07:22:18.981Z,7.95
2022-09-28T07:24:52.934Z,7.84
2022-09-28T07:27:59.918Z,7.85
2022-09-28T07:30:51.615Z,7.95
2022-09-28T07:33:43.911Z,7.93
2022-09-28T07:36:21.066Z,7.91
2022-09-28T07:38:52.212Z,7.96
2022-09-28T07:41:32.634Z,8.01
2022-09-28T07:44:08.519Z,8.01
2022-09-28T07:46:47.220Z,8.05
2022-09-28T07:49:35.293Z,8.08
2022-09-28T07:52:53.835Z,8.13
2022-09-28T07:55:41.811Z,8.17
2022-09-28T07:58:25.595Z,8.18
2022-09-28T08:01:26.174Z,8.08
2022-09-28T08:03:59.140Z,8.15
2022-09-28T08:06:32.100Z,8.18
2022-09-28T08:09:08.591Z,8.19
2022-09-28T08:12:14.920Z,8.17
2022-09-28T08:15:52.736Z,8.35
2022-09-28T08:18:49.936Z,8.29
2022-09-28T08:21:43.889Z,8.35
2022-09-28T08:24:19.259Z,8.31
2022-09-28T08:26:51.386Z,8.39
2022-09-28T08:29:22.165Z,8.43
2022-09-28T08:31:51.919Z,8.54
2022-09-28T08:34:25.142Z,8.50
2022-09-28T08:37:00.559Z,8.52
2022-09-28T08:39:52.747Z,8.56
2022-09-28T08:42:41.450Z,8.60
2022-09-28T08:45:41.894Z,8.70
2022-09-28T08:49:13.370Z,9.05
2022-09-28T08:52:13.882Z,9.38
2022-09-28T08:55:35.479Z,9.41
2022-09-28T08:58:12.053Z,9.69
2022-09-28T09:00:47.422Z,10.00
2022-09-28T09:03:50.253Z,9.92
2022-09-28T09:07:33.923Z,9.58
2022-09-28T09:10:21.134Z,9.71
2022-09-28T09:13:03.716Z,9.85
2022-09-28T09:15:46.656Z,9.83
2022-09-28T09:18:38.790Z,9.46
2022-09-28T09:21:49.571Z,9.41
2022-09-28T09:24:39.630Z,9.44
2022-09-28T09:27:31.437Z,9.41
2022-09-28T09:30:11.037Z,9.35
2022-09-28T09:33:04.933Z,9.40
2022-09-28T09:36:01.911Z,9.54
2022-09-28T09:39:07.084Z,9.70
2022-09-28T09:42:30.857Z,9.75
2022-09-28T09:45:47.099Z,9.85
2022-09-28T09:49:08.351Z,9.62
2022-09-28T09:51:50.314Z,9.49
2022-09-28T09:54:30.848Z,9.52
2022-09-28T09:57:08.879Z,9.37
2022-09-28T09:59:50.608Z,9.35
2022-09-28T10:02:30.558Z,9.40
2022-09-28T10:05:19.403Z,9.55
2022-09-28T10:07:55.243Z,9.52
2022-09-28T10:10:29.645Z,9.50
2022-09-28T10:13:14.912Z,9.52
2022-09-28T10:15:50.753Z,9.46
2022-09-28T10:18:31.114Z,9.38
2022-09-28T10:21:37.850Z,9.29
2022-09-28T10:24:33.098Z,9.26
2022-09-28T10:27:08.801Z,9.29
2022-09-28T10:29:55.598Z,9.25
2022-09-28T10:32:28.783Z,9.21
2022-09-28T10:35:16.127Z,9.24
2022-09-28T10:37:55.484Z,9.28
2022-09-28T10:40:44.865Z,9.33
2022-09-28T10:43:24.125Z,9.39
2022-09-28T10:46:07.828Z,9.39
2022-09-28T10:48:52.350Z,9.36
2022-09-28T10:51:41.975Z,9.33
2022-09-28T10:54:19.735Z,9.24
2022-09-28T10:56:53.888Z,9.28
2022-09-28T10:59:41.079Z,9.34
2022-09-28T11:02:36.970Z,9.34
2022-09-28T11:05:24.227Z,9.34
2022-09-28T11:08:00.962Z,9.31
2022-09-28T11:10:37.714Z,9.26
2022-09-28T11:13:14.349Z,9.29
2022-09-28T11:15:51.930Z,9.33
2022-09-28T11:18:32.802Z,9.33
2022-09-28T11:21:16.133Z,9.36
2022-09-28T11:24:07.623Z,9.34
2022-09-28T11:26:47.288Z,9.31
2022-09-28T11:29:28.042Z,9.25
2022-09-28T11:32:30.958Z,9.24
2022-09-28T11:35:46.740Z,9.18
2022-09-28T11:38:37.384Z,9.21
2022-09-28T11:41:32.910Z,9.22
2022-09-28T11:44:23.509Z,9.18
2022-09-28T11:47:35.665Z,9.24
2022-09-28T11:51:27.498Z,9.23
2022-09-28T11:58:32.173Z,9.29
2022-09-28T12:11:43.003Z,9.24
2022-09-28T12:14:36.747Z,9.30
2022-09-28T12:17:22.598Z,9.32
2022-09-28T12:19:58.555Z,9.33
2022-09-28T12:22:35.090Z,9.32
2022-09-28T12:25:08.625Z,9.30
2022-09-28T12:27:46.673Z,9.22
2022-09-28T12:30:20.805Z,9.20
2022-09-28T12:32:55.606Z,9.19
2022-09-28T12:35:38.013Z,9.13
2022-09-28T12:38:28.664Z,9.00
2022-09-28T12:41:05.723Z,8.93
2022-09-28T12:43:49.705Z,8.87
2022-09-28T12:46:49.282Z,8.93
2022-09-28T12:53:00.768Z,8.88
2022-09-28T12:55:56.677Z,8.87
2022-09-28T12:58:50.331Z,8.95
2022-09-28T13:01:43.822Z,8.97
2022-09-28T13:05:24.385Z,8.90
2022-09-28T13:08:07.619Z,8.90
2022-09-28T13:10:57.970Z,8.83
2022-09-28T13:13:42.661Z,8.91
2022-09-28T13:16:30.984Z,8.90
2022-09-28T13:19:17.205Z,8.86
2022-09-28T13:21:58.507Z,8.78
2022-09-28T13:28:27.265Z,8.75
2022-09-28T13:31:14.304Z,8.71
2022-09-28T13:34:28.937Z,8.67
2022-09-28T13:37:45.246Z,8.67
2022-09-28T13:41:39.127Z,8.62
2022-09-28T13:45:04.832Z,8.70
2022-09-28T13:48:20.478Z,8.67
2022-09-28T13:51:21.462Z,8.65
2022-09-28T13:54:43.713Z,8.65
2022-09-28T13:57:27.755Z,8.61
2022-09-28T14:04:13.138Z,8.61
2022-09-28T14:06:59.730Z,8.62
2022-09-28T14:09:54.507Z,8.63
2022-09-28T14:13:25.939Z,8.62
2022-09-28T14:16:47.463Z,8.61
2022-09-28T14:19:52.573Z,8.57
2022-09-28T14:22:42.844Z,8.51
2022-09-28T14:25:43.201Z,8.53
2022-09-28T14:31:39.770Z,8.53
2022-09-28T14:34:49.540Z,8.49
2022-09-28T14:37:57.340Z,8.47
2022-09-28T14:41:25.170Z,8.47
2022-09-28T14:49:12.788Z,8.44
2022-09-28T14:52:13.373Z,8.46
2022-09-28T14:55:19.967Z,8.44
2022-09-28T14:57:56.881Z,8.45
2022-09-28T15:00:34.994Z,8.45
2022-09-28T15:03:12.022Z,8.44
2022-09-28T15:05:56.176Z,8.40
2022-09-28T15:08:38.714Z,8.36
2022-09-28T15:11:16.455Z,8.35
2022-09-28T15:13:46.686Z,8.34
2022-09-28T15:16:20.926Z,8.32
2022-09-28T15:19:19.073Z,8.36
2022-09-28T15:21:51.561Z,8.37
2022-09-28T15:24:31.679Z,8.38
2022-09-28T15:27:30.122Z,8.38
2022-09-28T15:30:01.466Z,8.40
2022-09-28T15:32:58.356Z,8.40
2022-09-28T15:36:03.031Z,8.46
2022-09-28T15:38:35.097Z,8.44
2022-09-28T15:41:59.729Z,8.47
2022-09-28T15:45:29.387Z,8.50
2022-09-28T15:48:28.120Z,8.48
2022-09-28T15:51:11.147Z,8.46
2022-09-28T15:53:48.733Z,8.43
2022-09-28T15:56:18.467Z,8.39
2022-09-28T15:59:11.758Z,8.38
2022-09-28T16:01:45.585Z,8.37
2022-09-28T16:04:37.889Z,8.40
2022-09-28T16:07:36.878Z,8.38
2022-09-28T16:10:34.227Z,8.39
2022-09-28T16:13:20.852Z,8.39
2022-09-28T16:16:10.577Z,8.39
2022-09-28T16:18:49.487Z,8.37
2022-09-28T16:21:44.416Z,8.39
2022-09-28T16:24:23.476Z,8.38
2022-09-28T16:26:59.796Z,8.37
2022-09-28T16:29:40.228Z,8.38
2022-09-28T16:32:38.633Z,8.39
2022-09-28T16:35:50.706Z,8.40
2022-09-28T16:38:22.506Z,8.42
2022-09-28T16:40:54.490Z,8.44
2022-09-28T16:43:28.091Z,8.45
2022-09-28T16:46:01.824Z,8.45
2022-09-28T16:48:40.007Z,8.45
2022-09-28T16:51:20.631Z,8.47
2022-09-28T16:55:22.763Z,8.49
2022-09-28T16:57:55.911Z,8.53
2022-09-28T17:00:29.541Z,8.57
2022-09-28T17:03:00.107Z,8.54
2022-09-28T17:05:29.863Z,8.52
2022-09-28T17:08:17.504Z,8.55
2022-09-28T17:11:15.789Z,8.55
2022-09-28T17:14:18.958Z,8.59
2022-09-28T17:17:08.719Z,8.57
2022-09-28T17:20:19.106Z,8.59
2022-09-28T17:23:06.282Z,8.64
2022-09-28T17:25:37.985Z,8.65
2022-09-28T17:28:20.122Z,8.69
2022-09-28T17:31:12.362Z,8.70
2022-09-28T17:34:25.545Z,8.65
2022-09-28T17:50:46.598Z,8.59
2022-09-28T17:53:20.438Z,8.55
2022-09-28T17:56:24.389Z,8.57
2022-09-28T17:59:17.312Z,8.56
2022-09-28T18:01:52.354Z,8.57
2022-09-28T18:04:50.846Z,8.57
2022-09-28T18:07:19.212Z,8.62
2022-09-28T18:09:57.075Z,8.58
2022-09-28T18:12:43.719Z,8.53
2022-09-28T18:15:15.876Z,8.52
2022-09-28T18:17:48.575Z,8.52
2022-09-28T18:20:21.646Z,8.44
2022-09-28T18:22:58.203Z,8.43
2022-09-28T18:25:29.919Z,8.42
2022-09-28T18:28:16.473Z,8.51
2022-09-28T18:30:50.572Z,8.48
2022-09-28T18:33:21.111Z,8.48
2022-09-28T18:35:54.510Z,8.50
2022-09-28T18:38:26.243Z,8.45
2022-09-28T18:40:57.371Z,8.40
2022-09-28T18:43:45.869Z,8.38
2022-09-28T18:46:15.713Z,8.38
2022-09-28T18:48:47.115Z,8.42
2022-09-28T18:51:17.289Z,8.48
2022-09-28T18:54:17.879Z,8.75
2022-09-28T18:56:48.844Z,8.92
2022-09-28T18:59:18.902Z,8.84
2022-09-28T19:01:50.112Z,8.76
2022-09-28T19:04:46.471Z,8.79
2022-09-28T19:07:18.236Z,8.66
2022-09-28T19:09:50.570Z,8.54
2022-09-28T19:12:21.889Z,8.47
2022-09-28T19:14:51.933Z,8.41
2022-09-28T19:17:22.288Z,8.38
2022-09-28T19:19:53.651Z,8.40
2022-09-28T19:22:31.934Z,8.44
2022-09-28T19:25:03.991Z,8.44
2022-09-28T19:27:37.520Z,8.76
2022-09-28T19:30:09.465Z,8.92
2022-09-28T19:32:39.208Z,9.01
2022-09-28T19:35:09.707Z,9.09
2022-09-28T19:37:40.123Z,9.15
2022-09-28T19:40:12.164Z,9.00
2022-09-28T19:42:41.794Z,8.97
2022-09-28T19:45:14.223Z,9.05
2022-09-28T19:47:49.409Z,9.19
2022-09-28T19:50:22.541Z,9.28
2022-09-28T19:52:53.438Z,9.33
2022-09-28T19:55:25.402Z,9.17
2022-09-28T19:57:56.801Z,9.10
2022-09-28T20:00:27.430Z,9.14
2022-09-28T20:03:00.060Z,9.22
2022-09-28T20:05:29.448Z,9.23
2022-09-28T20:07:58.901Z,9.21
2022-09-28T20:10:30.827Z,9.28
2022-09-28T20:13:00.930Z,9.30
2022-09-28T20:15:30.305Z,9.26
2022-09-28T20:17:59.545Z,9.25
2022-09-28T20:20:28.594Z,9.34
2022-09-28T20:22:59.365Z,9.14
2022-09-28T20:25:30.404Z,9.03
2022-09-28T20:28:06.211Z,9.20
2022-09-28T20:30:38.685Z,9.15
2022-09-28T20:33:19.026Z,9.12
2022-09-28T20:35:52.599Z,9.14
2022-09-28T20:38:21.679Z,9.15
2022-09-28T20:40:58.634Z,9.23
2022-09-28T20:43:30.195Z,9.26
2022-09-28T20:46:00.943Z,9.08
2022-09-28T20:48:31.077Z,8.99
2022-09-28T20:51:03.393Z,9.21
2022-09-28T20:53:37.191Z,9.10
2022-09-28T20:56:16.610Z,9.08
2022-09-28T20:58:48.036Z,9.05
2022-09-28T21:01:19.573Z,9.06
2022-09-28T21:03:50.964Z,9.07
2022-09-28T21:06:26.263Z,9.07
2022-09-28T21:08:57.632Z,8.78
2022-09-28T21:11:30.878Z,8.92
2022-09-28T21:14:02.872Z,9.10
2022-09-28T21:16:33.874Z,9.14
2022-09-28T21:19:04.696Z,9.12
2022-09-28T21:21:34.170Z,9.12
2022-09-28T21:24:29.630Z,9.12
2022-09-28T21:27:00.405Z,9.03
2022-09-28T21:29:40.744Z,8.96
2022-09-28T21:32:10.670Z,8.86
2022-09-28T21:34:40.139Z,8.92
2022-09-28T21:37:09.527Z,9.03
2022-09-28T21:39:38.965Z,8.94
2022-09-28T21:42:11.019Z,8.98
2022-09-28T21:44:46.301Z,9.12
2022-09-28T21:47:19.638Z,9.03
2022-09-28T21:49:49.113Z,9.03
2022-09-28T21:52:18.298Z,9.18
2022-09-28T21:54:48.069Z,9.13
2022-09-28T21:57:20.251Z,8.97
2022-09-28T21:59:57.318Z,9.00
2022-09-28T22:02:34.147Z,9.06
2022-09-28T22:05:03.521Z,8.96
2022-09-28T22:07:32.982Z,8.96
2022-09-28T22:10:02.469Z,9.08
2022-09-28T22:12:34.284Z,8.77
2022-09-28T22:15:03.714Z,8.77
2022-09-28T22:17:33.292Z,8.85
2022-09-28T22:20:03.036Z,8.87
2022-09-28T22:22:32.872Z,8.88
2022-09-28T22:25:02.268Z,9.00
2022-09-28T22:27:33.889Z,9.02
2022-09-28T22:30:03.178Z,9.02
2022-09-28T22:32:32.588Z,8.89
2022-09-28T22:35:02.276Z,8.87
2022-09-28T22:37:33.637Z,8.76
2022-09-28T22:40:20.489Z,8.91
2022-09-28T22:42:51.532Z,8.94
2022-09-28T22:45:20.809Z,9.01
2022-09-28T22:47:49.854Z,8.91
2022-09-28T22:50:20.251Z,8.71
2022-09-28T22:52:49.564Z,8.95
2022-09-28T22:55:18.801Z,8.93
2022-09-28T22:57:48.178Z,8.84
2022-09-28T23:00:19.238Z,8.87
2022-09-28T23:02:49.036Z,8.88
2022-09-28T23:05:18.450Z,9.01
2022-09-28T23:07:47.737Z,8.93
2022-09-28T23:10:17.314Z,8.85
2022-09-28T23:12:46.769Z,8.71
2022-09-28T23:15:16.119Z,8.87
2022-09-28T23:17:46.731Z,8.83
2022-09-28T23:20:15.941Z,8.67
2022-09-28T23:22:47.570Z,8.78
2022-09-28T23:25:33.403Z,8.71
2022-09-28T23:28:02.967Z,8.66
2022-09-28T23:30:32.642Z,8.86
2022-09-28T23:33:03.175Z,8.95
2022-09-28T23:35:32.532Z,8.94
2022-09-28T23:38:01.719Z,8.87
2022-09-28T23:40:30.836Z,8.78
2022-09-28T23:43:00.503Z,8.69
2022-09-28T23:45:29.510Z,8.71
2022-09-28T23:47:58.642Z,8.77
2022-09-28T23:50:29.236Z,8.74
2022-09-28T23:52:58.230Z,8.69
2022-09-28T23:55:29.501Z,8.62
2022-09-28T23:57:59.277Z,8.61
